Time;durP1;ratioP1;P1;durP2;ratioP2;P2;SDS_P1;SDS_P2;PMS_P1;PMS_P2;Temp;Humidity;BMP_temperature;BMP_pressure;BME280_temperature;BME280_humidity;BME280_pressure;Samples;Min_cycle;Max_cycle;Signal;HPM_P1;HPM_P2
2023/10/28 00:08:41;;;;;;;4.37;1.10;;;;;;;8.27;79.63;98504.81;21050864;28;20214;-79
2023/10/28 00:18:42;;;;;;;6.57;1.40;;;;;;;8.26;80.96;98514.38;21037249;28;20265;-81
2023/10/28 00:28:46;;;;;;;7.33;1.97;;;;;;;8.10;79.41;98516.31;21050483;28;20227;-79
2023/10/28 00:38:47;;;;;;;5.20;1.20;;;;;;;8.34;80.70;98510.59;21042989;28;20317;-78
2023/10/28 00:48:52;;;;;;;3.77;1.10;;;;;;;8.56;78.71;98510.03;21049764;28;20329;-80
2023/10/28 00:58:54;;;;;;;4.20;1.03;;;;;;;8.46;78.70;98506.91;21059552;28;20198;-87
2023/10/28 01:08:57;;;;;;;6.23;1.80;;;;;;;8.50;80.21;98502.22;21042453;28;20305;-79
2023/10/28 01:18:59;;;;;;;4.10;1.40;;;;;;;8.53;80.70;98502.31;21049288;28;20202;-81
2023/10/28 01:29:02;;;;;;;6.63;1.00;;;;;;;8.17;80.89;98500.53;21047751;28;20241;-79
2023/10/28 01:39:04;;;;;;;1.97;0.60;;;;;;;8.53;80.78;98502.31;21048809;28;20253;-79
2023/10/28 01:49:08;;;;;;;4.80;1.00;;;;;;;8.83;78.85;98513.13;20990112;28;20237;-80
2023/10/28 01:59:09;;;;;;;4.33;1.07;;;;;;;8.84;78.08;98518.38;20993515;28;20195;-79
2023/10/28 02:09:13;;;;;;;3.90;1.10;;;;;;;8.70;77.56;98524.44;20998435;28;20220;-79
2023/10/28 02:19:14;;;;;;;5.03;0.93;;;;;;;9.22;76.17;98525.34;20985282;28;20199;-79
2023/10/28 02:29:17;;;;;;;4.70;0.70;;;;;;;9.42;74.96;98530.63;20991763;28;20234;-79
2023/10/28 02:39:20;;;;;;;3.63;0.63;;;;;;;8.55;78.61;98533.66;20981255;28;20221;-85
2023/10/28 02:49:23;;;;;;;2.23;0.50;;;;;;;8.60;79.53;98540.97;20996997;28;20520;-87
2023/10/28 02:59:24;;;;;;;1.93;0.80;;;;;;;9.24;76.03;98537.00;20989201;28;20219;-85
2023/10/28 03:09:30;;;;;;;4.10;0.60;;;;;;;9.11;77.02;98539.09;21007275;28;20704;-87
2023/10/28 03:19:32;;;;;;;3.00;0.70;;;;;;;9.02;77.68;98530.84;21002646;28;20481;-88
2023/10/28 03:29:35;;;;;;;1.63;0.47;;;;;;;9.12;77.85;98535.09;21013926;28;20312;-88
2023/10/28 03:39:38;;;;;;;1.50;0.60;;;;;;;9.02;77.95;98544.06;21009092;28;20249;-88
2023/10/28 03:49:41;;;;;;;2.13;0.70;;;;;;;8.99;80.26;98545.59;20963482;28;20227;-90
2023/10/28 03:59:45;;;;;;;2.13;0.90;;;;;;;9.13;79.71;98547.97;20946527;28;20214;-90
2023/10/28 04:09:48;;;;;;;2.67;0.60;;;;;;;8.90;80.23;98550.59;20976031;28;20223;-89
2023/10/28 04:19:57;;;;;;;2.13;0.90;;;;;;;8.80;80.47;98553.13;20955273;28;20737;-91
2023/10/28 04:30:00;;;;;;;1.40;1.00;;;;;;;8.72;81.10;98554.91;20955078;28;20222;-89
2023/10/28 04:40:03;;;;;;;2.53;1.00;;;;;;;8.64;80.88;98559.50;20954972;28;20222;-88
2023/10/28 04:50:08;;;;;;;2.40;0.97;;;;;;;8.97;80.57;98556.38;21002504;28;20227;-87
2023/10/28 05:00:11;;;;;;;3.20;0.80;;;;;;;8.62;80.38;98559.06;20997507;28;20203;-88
2023/10/28 05:10:14;;;;;;;3.60;1.20;;;;;;;8.09;81.49;98565.91;21000602;28;20214;-88
2023/10/28 05:20:17;;;;;;;2.33;1.10;;;;;;;8.36;81.02;98558.69;20996957;28;20195;-88
2023/10/28 05:30:20;;;;;;;2.13;1.10;;;;;;;8.13;80.85;98561.25;20999451;28;20309;-88
2023/10/28 05:40:26;;;;;;;3.43;1.30;;;;;;;7.83;82.92;98555.16;21014941;28;20309;-89
2023/10/28 05:50:34;;;;;;;2.70;1.20;;;;;;;7.80;83.20;98553.03;21071450;28;20233;-86
2023/10/28 06:00:38;;;;;;;1.83;1.00;;;;;;;8.13;80.50;98557.63;21062284;28;20202;-88
2023/10/28 06:10:41;;;;;;;2.47;0.80;;;;;;;8.40;81.15;98558.81;21068124;28;20218;-82
2023/10/28 06:20:46;;;;;;;2.13;1.00;;;;;;;8.06;81.38;98571.44;21064427;28;20603;-83
2023/10/28 06:30:50;;;;;;;2.23;0.90;;;;;;;8.25;80.74;98574.38;21070739;28;21682;-81
2023/10/28 06:40:52;;;;;;;1.13;0.50;;;;;;;8.12;80.51;98592.41;21064495;28;20630;-80
2023/10/28 06:50:55;;;;;;;0.47;0.30;;;;;;;8.10;80.70;98601.16;21061693;28;20290;-80
2023/10/28 07:00:57;;;;;;;0.80;0.40;;;;;;;8.02;81.66;98599.34;21049746;28;20562;-81
2023/10/28 07:11:01;;;;;;;2.30;0.57;;;;;;;8.13;81.78;98605.25;21045960;28;20225;-81
2023/10/28 07:21:04;;;;;;;1.23;0.33;;;;;;;8.02;81.65;98600.16;21068617;28;20293;-82
2023/10/28 07:31:07;;;;;;;1.30;0.33;;;;;;;8.50;81.38;98601.16;21064665;28;20218;-87
2023/10/28 07:41:09;;;;;;;0.80;0.33;;;;;;;8.56;79.41;98602.56;21062046;28;20724;-87
2023/10/28 07:51:13;;;;;;;0.60;0.20;;;;;;;8.85;79.96;98608.94;21055169;28;20218;-82
2023/10/28 08:01:17;;;;;;;0.60;0.20;;;;;;;8.67;79.29;98625.28;21045467;28;20251;-87
2023/10/28 08:11:21;;;;;;;0.90;0.10;;;;;;;8.89;78.78;98615.47;21059308;28;20226;-81
2023/10/28 08:21:25;;;;;;;0.50;0.20;;;;;;;9.30;76.45;98626.19;21061160;28;20194;-84
2023/10/28 08:31:29;;;;;;;0.30;0.10;;;;;;;9.51;76.36;98625.91;21052366;28;20531;-82
2023/10/28 08:41:31;;;;;;;0.77;0.10;;;;;;;9.33;76.92;98649.91;21059527;28;20226;-80
2023/10/28 08:51:36;;;;;;;1.73;0.30;;;;;;;9.20;77.65;98666.03;21052709;28;20500;-88
2023/10/28 09:01:37;;;;;;;3.30;0.17;;;;;;;9.26;79.19;98675.78;21068064;28;20201;-81
2023/10/28 09:11:42;;;;;;;0.77;0.20;;;;;;;9.26;80.09;98686.19;21057986;28;20507;-83
2023/10/28 09:21:43;;;;;;;1.70;0.10;;;;;;;9.38;80.05;98700.16;21059276;28;20194;-84
2023/10/28 09:31:47;;;;;;;0.80;0.10;;;;;;;9.21;79.90;98692.91;21046881;28;20798;-84
2023/10/28 09:41:49;;;;;;;1.57;0.27;;;;;;;9.56;80.01;98697.81;21019089;28;20219;-86
2023/10/28 09:51:53;;;;;;;1.03;0.30;;;;;;;9.87;80.29;98700.66;20957059;28;20223;-87
2023/10/28 10:02:02;;;;;;;0.57;0.10;;;;;;;9.69;78.90;98697.41;20979267;28;20210;-88
2023/10/28 10:12:07;;;;;;;0.60;0.20;;;;;;;10.01;77.98;98703.78;20966554;28;20330;-81
2023/10/28 10:22:10;;;;;;;0.53;0.10;;;;;;;10.16;77.60;98702.13;20992496;28;20515;-87
2023/10/28 10:32:20;;;;;;;1.50;0.10;;;;;;;10.20;76.93;98705.84;20983771;28;20563;-82
2023/10/28 10:42:22;;;;;;;3.03;0.20;;;;;;;10.48;74.71;98709.31;21003750;28;20565;-82
2023/10/28 10:52:26;;;;;;;1.33;0.30;;;;;;;9.92;77.12;98706.00;21065103;28;20561;-81
2023/10/28 11:02:28;;;;;;;1.13;0.20;;;;;;;10.03;75.96;98697.81;21066754;28;20482;-81
2023/10/28 11:12:31;;;;;;;2.40;0.67;;;;;;;10.75;74.42;98678.59;21065601;28;20256;-79
2023/10/28 11:22:33;;;;;;;1.30;0.30;;;;;;;10.74;72.65;98669.31;21067784;28;20233;-83
2023/10/28 11:32:41;;;;;;;0.67;0.20;;;;;;;11.29;70.40;98653.09;21057151;28;20675;-82
2023/10/28 11:42:45;;;;;;;0.63;0.27;;;;;;;11.53;68.80;98647.09;21031066;28;20223;-83
2023/10/28 11:52:49;;;;;;;1.27;0.30;;;;;;;11.07;70.44;98651.06;20980754;28;20314;-86
2023/10/28 12:02:50;;;;;;;0.85;0.20;;;;;;;11.00;70.60;98650.94;20992082;28;20200;-82
2023/10/28 12:12:53;;;;;;;1.90;0.40;;;;;;;11.32;67.73;98651.50;20988612;28;20222;-82
2023/10/28 12:22:56;;;;;;;5.47;0.57;;;;;;;11.49;66.01;98649.03;20976541;28;20220;-82
2023/10/28 12:33:00;;;;;;;2.03;0.60;;;;;;;11.45;65.75;98667.03;20980829;28;20682;-85
2023/10/28 12:43:02;;;;;;;3.10;0.60;;;;;;;11.30;66.04;98660.38;21011461;28;20223;-85
2023/10/28 12:53:06;;;;;;;5.03;0.88;;;;;;;11.90;63.13;98667.06;21023929;28;20245;-82
2023/10/28 13:03:11;;;;;;;2.20;0.60;;;;;;;11.40;61.66;98662.56;21045125;28;20195;-81
2023/10/28 13:13:14;;;;;;;7.10;0.90;;;;;;;11.86;61.23;98676.63;21039368;28;20218;-82
2023/10/28 13:23:16;;;;;;;5.07;0.60;;;;;;;11.91;61.24;98684.78;21033735;28;20190;-81
2023/10/28 13:33:20;;;;;;;3.20;1.33;;;;;;;11.84;61.14;98679.00;21046473;28;20686;-82
2023/10/28 13:43:22;;;;;;;7.88;0.93;;;;;;;11.54;61.50;98676.88;21007845;28;20838;-82
2023/10/28 13:53:25;;;;;;;6.03;1.15;;;;;;;11.30;64.94;98694.16;20979008;28;22726;-83
2023/10/28 14:03:28;;;;;;;1.93;0.40;;;;;;;10.42;72.99;98691.09;20972958;28;20298;-82
2023/10/28 14:13:31;;;;;;;2.43;0.60;;;;;;;11.22;71.26;98698.00;20990856;28;20226;-82
2023/10/28 14:23:33;;;;;;;2.67;0.63;;;;;;;11.05;71.45;98699.28;20974605;28;20488;-82
2023/10/28 14:33:47;;;;;;;3.28;0.70;;;;;;;11.52;70.42;98718.69;20983307;28;20615;-84
2023/10/28 14:44:08;;;;;;;5.10;0.70;;;;;;;11.26;72.83;98718.59;21002877;28;20227;-85
2023/10/28 14:54:12;;;;;;;4.13;0.80;;;;;;;10.88;77.84;98707.38;20997847;28;20515;-83
2023/10/28 15:04:13;;;;;;;4.60;1.27;;;;;;;11.14;76.70;98707.50;20981801;28;20230;-89
2023/10/28 15:14:19;;;;;;;4.47;1.20;;;;;;;11.06;76.57;98700.09;20977699;28;20651;-83
2023/10/28 15:24:20;;;;;;;5.63;1.67;;;;;;;11.04;79.34;98699.69;20976138;28;20262;-82
2023/10/28 15:34:24;;;;;;;2.40;0.90;;;;;;;10.65;77.65;98696.06;21007497;28;20668;-82
2023/10/28 15:44:27;;;;;;;2.70;0.67;;;;;;;10.80;74.05;98693.16;21020280;28;20223;-84
2023/10/28 15:54:32;;;;;;;2.97;1.00;;;;;;;10.64;74.12;98683.19;21042718;28;20227;-82
2023/10/28 16:04:33;;;;;;;3.57;0.67;;;;;;;10.18;75.93;98702.59;21046908;28;20201;-87
2023/10/28 16:14:37;;;;;;;3.10;0.70;;;;;;;10.32;76.51;98704.91;21064239;28;20215;-86
2023/10/28 16:24:38;;;;;;;0.83;0.30;;;;;;;9.98;75.07;98707.34;21056114;28;20674;-89
2023/10/28 16:34:45;;;;;;;0.80;0.23;;;;;;;9.90;76.32;98699.91;21058768;28;20640;-87
2023/10/28 16:44:47;;;;;;;0.57;0.20;;;;;;;9.59;76.30;98711.16;21029458;28;20275;-85
2023/10/28 16:54:57;;;;;;;0.70;0.30;;;;;;;9.56;77.70;98698.66;21052505;28;20693;-89
2023/10/28 17:04:58;;;;;;;2.03;0.83;;;;;;;9.73;77.53;98694.69;21056015;28;20210;-90
2023/10/28 17:15:05;;;;;;;0.30;0.30;;;;;;;9.64;77.35;98724.94;21041043;28;20228;-89
2023/10/28 17:25:08;;;;;;;3.43;0.60;;;;;;;9.42;77.13;98734.75;21032350;28;20249;-88
2023/10/28 17:35:12;;;;;;;0.67;0.30;;;;;;;9.44;78.37;98738.03;21043867;28;20241;-87
2023/10/28 17:45:14;;;;;;;1.13;0.30;;;;;;;9.72;77.53;98755.69;21071597;28;20230;-89
2023/10/28 17:55:18;;;;;;;5.87;0.40;;;;;;;9.70;77.00;98745.97;21050321;28;20226;-86
2023/10/28 18:05:20;;;;;;;1.57;0.40;;;;;;;9.71;78.36;98736.38;21055109;28;20671;-89
2023/10/28 18:15:27;;;;;;;1.80;0.30;;;;;;;9.53;79.78;98740.66;21045294;28;20678;-87
2023/10/28 18:25:29;;;;;;;1.50;0.53;;;;;;;9.70;77.77;98741.16;21026009;28;20290;-87
2023/10/28 18:35:33;;;;;;;1.13;0.40;;;;;;;9.69;78.12;98741.53;21040274;28;21231;-88
2023/10/28 18:45:37;;;;;;;5.50;0.50;;;;;;;9.77;77.02;98724.47;21056013;28;20226;-86
2023/10/28 18:55:41;;;;;;;1.10;0.20;;;;;;;9.77;76.56;98723.66;21042262;28;20249;-88
2023/10/28 19:05:45;;;;;;;0.93;0.30;;;;;;;10.04;75.76;98722.75;21055028;28;20194;-82
2023/10/28 19:15:49;;;;;;;0.87;0.50;;;;;;;9.75;76.28;98703.53;21053285;28;20246;-88
2023/10/28 19:25:51;;;;;;;1.70;0.37;;;;;;;10.21;73.96;98701.06;21066460;28;20202;-85
2023/10/28 19:35:59;;;;;;;2.80;0.30;;;;;;;9.84;74.89;98692.97;21053251;28;20256;-89
2023/10/28 19:46:05;;;;;;;1.07;0.20;;;;;;;9.70;76.34;98682.19;21062925;28;20221;-89
2023/10/28 19:56:13;;;;;;;2.43;0.40;;;;;;;9.87;75.70;98666.13;21070911;28;20292;-89
2023/10/28 20:06:16;;;;;;;4.73;0.40;;;;;;;9.57;77.43;98672.19;21048165;28;20197;-90
2023/10/28 20:16:20;;;;;;;1.97;0.40;;;;;;;9.76;77.42;98665.84;21057422;28;20616;-90
2023/10/28 20:26:21;;;;;;;1.70;0.80;;;;;;;9.69;78.47;98672.13;21048007;28;20195;-90
2023/10/28 20:36:25;;;;;;;1.67;0.50;;;;;;;9.92;78.99;98646.16;21056556;28;20215;-80
2023/10/28 20:46:27;;;;;;;2.20;1.20;;;;;;;8.88;84.12;98653.09;21001274;28;20298;-92
2023/10/28 20:56:30;;;;;;;2.17;1.60;;;;;;;9.33;83.70;98642.31;21006786;28;20234;-91
2023/10/28 21:06:31;;;;;;;2.23;1.00;;;;;;;9.20;84.96;98637.13;21008620;28;20499;-93
2023/10/28 21:16:36;;;;;;;2.37;0.43;;;;;;;9.26;85.89;98614.03;20997190;28;20285;-92
2023/10/28 21:26:38;;;;;;;2.47;0.53;;;;;;;9.21;85.53;98589.06;20992395;28;20473;-92
2023/10/28 21:37:06;;;;;;;1.60;0.60;;;;;;;9.34;85.63;98587.00;20992944;28;20677;-90
2023/10/28 21:47:07;;;;;;;2.63;1.00;;;;;;;9.24;86.36;98563.06;21020039;28;20313;-83
2023/10/28 21:57:11;;;;;;;3.80;0.90;;;;;;;9.19;87.38;98556.94;21024933;28;20227;-87
2023/10/28 22:07:13;;;;;;;2.40;0.93;;;;;;;9.35;86.32;98543.72;21020228;28;20226;-88
2023/10/28 22:17:16;;;;;;;1.77;0.60;;;;;;;9.08;88.48;98512.59;21026557;28;20298;-88
2023/10/28 22:27:18;;;;;;;1.33;1.00;;;;;;;9.59;86.21;98508.97;21040521;28;20199;-86
2023/10/28 22:37:22;;;;;;;1.63;0.70;;;;;;;9.27;86.92;98486.56;21031329;28;20225;-85
2023/10/28 22:47:49;;;;;;;3.20;0.60;;;;;;;9.49;86.56;98456.97;21042350;28;20318;-88
2023/10/28 22:57:52;;;;;;;2.67;0.80;;;;;;;9.80;84.36;98436.41;21050343;28;20214;-86
2023/10/28 23:07:54;;;;;;;2.37;0.80;;;;;;;9.56;84.48;98428.25;21075103;28;20195;-89
2023/10/28 23:17:57;;;;;;;2.73;0.83;;;;;;;9.55;84.20;98432.25;21069174;28;20215;-88
2023/10/28 23:27:59;;;;;;;2.10;1.00;;;;;;;9.54;84.71;98439.03;21029778;28;20222;-87
2023/10/28 23:38:05;;;;;;;2.03;0.50;;;;;;;9.45;84.61;98414.00;21041562;28;20710;-91
2023/10/28 23:48:07;;;;;;;1.45;0.60;;;;;;;9.68;83.79;98406.50;21021306;28;20225;-92
2023/10/28 23:58:11;;;;;;;4.43;0.70;;;;;;;9.96;83.52;98382.97;21009727;28;20221;-91
